<?xml version="1.0" encoding="utf-8"?>
<gpx xmlns:xsi="http://www.w3.org/2001/XMLSchema-instance" xmlns:xsd="http://www.w3.org/2001/XMLSchema" version="1.1" creator="Shapelink.com" xmlns="http://www.topografix.com/GPX/1/1" xmlns:gpxtpx="http://www.garmin.com/xmlschemas/TrackPointExtension/v1">
  <metadata>
    <name>Övrigt 1.70 km, 2020-10-23</name>
    <desc></desc>
    <author><name>Marian Moron</name></author> 
    <time>2020-10-23T20:36:51Z</time>
  </metadata>
  <trk>
    <name>Övrigt 1.70 km, 2020-10-23</name>
    <trkseg>
      <trkpt lat="51.229832159584" lon="4.457969254635">
        <ele>5.6</ele>
        <time>2020-10-23T20:36:51Z</time>
      </trkpt>
      <trkpt lat="51.229751441887" lon="4.457265175035">
        <ele>8.2</ele>
        <time>2020-10-23T20:37:14Z</time>
      </trkpt>
      <trkpt lat="51.229680363375" lon="4.456654050706">
        <ele>13</ele>
        <time>2020-10-23T20:38:12Z</time>
      </trkpt>
      <trkpt lat="51.229742640892" lon="4.456603843125">
        <ele>12.8</ele>
        <time>2020-10-23T20:38:21Z</time>
      </trkpt>
      <trkpt lat="51.230190234352" lon="4.456496387167">
        <ele>10</ele>
        <time>2020-10-23T20:39:01Z</time>
      </trkpt>
      <trkpt lat="51.230639001278" lon="4.456364120785">
        <ele>15</ele>
        <time>2020-10-23T20:39:38Z</time>
      </trkpt>
      <trkpt lat="51.230694657094" lon="4.456326066959">
        <ele>14.8</ele>
        <time>2020-10-23T20:39:43Z</time>
      </trkpt>
      <trkpt lat="51.230840083059" lon="4.456275356464">
        <ele>13.4</ele>
        <time>2020-10-23T20:39:56Z</time>
      </trkpt>
      <trkpt lat="51.230912837951" lon="4.45603848397">
        <ele>8.4</ele>
        <time>2020-10-23T20:40:10Z</time>
      </trkpt>
      <trkpt lat="51.230890039183" lon="4.455985678">
        <ele>7.8</ele>
        <time>2020-10-23T20:40:13Z</time>
      </trkpt>
      <trkpt lat="51.230818373938" lon="4.455812675584">
        <ele>1.2</ele>
        <time>2020-10-23T20:40:49Z</time>
      </trkpt>
      <trkpt lat="51.230939576212" lon="4.455916527325">
        <ele>0.6</ele>
        <time>2020-10-23T20:40:56Z</time>
      </trkpt>
      <trkpt lat="51.230975618382" lon="4.455953407685">
        <ele>1.4</ele>
        <time>2020-10-23T20:40:58Z</time>
      </trkpt>
      <trkpt lat="51.230904456051" lon="4.456104198066">
        <ele>2.6</ele>
        <time>2020-10-23T20:41:12Z</time>
      </trkpt>
      <trkpt lat="51.230889284812" lon="4.456133031802">
        <ele>2.6</ele>
        <time>2020-10-23T20:41:30Z</time>
      </trkpt>
      <trkpt lat="51.230558115943" lon="4.455758277053">
        <ele>0</ele>
        <time>2020-10-23T20:42:05Z</time>
      </trkpt>
      <trkpt lat="51.230481924472" lon="4.455666914343">
        <ele>0</ele>
        <time>2020-10-23T20:42:21Z</time>
      </trkpt>
      <trkpt lat="51.230087053163" lon="4.455323340262">
        <ele>0</ele>
        <time>2020-10-23T20:42:58Z</time>
      </trkpt>
      <trkpt lat="51.229912625824" lon="4.455231977552">
        <ele>0</ele>
        <time>2020-10-23T20:43:35Z</time>
      </trkpt>
      <trkpt lat="51.229471737884" lon="4.455061405887">
        <ele>0</ele>
        <time>2020-10-23T20:44:15Z</time>
      </trkpt>
      <trkpt lat="51.229127996165" lon="4.455024525527">
        <ele>0</ele>
        <time>2020-10-23T20:44:46Z</time>
      </trkpt>
      <trkpt lat="51.228693981383" lon="4.454840794279">
        <ele>0</ele>
        <time>2020-10-23T20:45:12Z</time>
      </trkpt>
      <trkpt lat="51.228630614219" lon="4.454881195037">
        <ele>0</ele>
        <time>2020-10-23T20:45:17Z</time>
      </trkpt>
      <trkpt lat="51.228364572713" lon="4.45483987227">
        <ele>0</ele>
        <time>2020-10-23T20:45:55Z</time>
      </trkpt>
      <trkpt lat="51.228190564469" lon="4.454822689375">
        <ele>0</ele>
        <time>2020-10-23T20:46:15Z</time>
      </trkpt>
      <trkpt lat="51.227863921826" lon="4.454856300794">
        <ele>0</ele>
        <time>2020-10-23T20:47:04Z</time>
      </trkpt>
      <trkpt lat="51.227802314861" lon="4.454940622708">
        <ele>0</ele>
        <time>2020-10-23T20:47:16Z</time>
      </trkpt>
      <trkpt lat="51.227780186645" lon="4.455470610245">
        <ele>0</ele>
        <time>2020-10-23T20:48:57Z</time>
      </trkpt>
      <trkpt lat="51.227932150492" lon="4.455721815788">
        <ele>0</ele>
        <time>2020-10-23T20:49:29Z</time>
      </trkpt>
      <trkpt lat="51.228039690269" lon="4.455964555612">
        <ele>0</ele>
        <time>2020-10-23T20:49:52Z</time>
      </trkpt>
      <trkpt lat="51.228143039096" lon="4.456272841894">
        <ele>0</ele>
        <time>2020-10-23T20:50:18Z</time>
      </trkpt>
      <trkpt lat="51.228273377641" lon="4.456651871412">
        <ele>4</ele>
        <time>2020-10-23T20:50:53Z</time>
      </trkpt>
      <trkpt lat="51.228424000384" lon="4.456930653406">
        <ele>4.2</ele>
        <time>2020-10-23T20:51:17Z</time>
      </trkpt>
      <trkpt lat="51.228741590575" lon="4.456883966223">
        <ele>8.6</ele>
        <time>2020-10-23T20:51:54Z</time>
      </trkpt>
      <trkpt lat="51.22908063843" lon="4.456878601807">
        <ele>20.8</ele>
        <time>2020-10-23T20:52:22Z</time>
      </trkpt>
      <trkpt lat="51.229379704622" lon="4.456762177216">
        <ele>23.8</ele>
        <time>2020-10-23T20:52:56Z</time>
      </trkpt>
      <trkpt lat="51.229489088417" lon="4.456733511118">
        <ele>20.2</ele>
        <time>2020-10-23T20:53:12Z</time>
      </trkpt>
      <trkpt lat="51.229611547976" lon="4.456730745091">
        <ele>17.4</ele>
        <time>2020-10-23T20:53:34Z</time>
      </trkpt>
      <trkpt lat="51.230061823644" lon="4.456643908607">
        <ele>0</ele>
        <time>2020-10-23T20:54:56Z</time>
      </trkpt>
      <trkpt lat="51.230134997631" lon="4.456622199486">
        <ele>0.6</ele>
        <time>2020-10-23T20:55:15Z</time>
      </trkpt>
      <trkpt lat="51.23040497863" lon="4.456497476814">
        <ele>1</ele>
        <time>2020-10-23T20:55:55Z</time>
      </trkpt>
      <trkpt lat="51.230526767637" lon="4.456447185414">
        <ele>0</ele>
        <time>2020-10-23T20:56:08Z</time>
      </trkpt>
      <trkpt lat="51.230629529731" lon="4.456453304201">
        <ele>0</ele>
        <time>2020-10-23T20:56:20Z</time>
      </trkpt>
      <trkpt lat="51.230983916463" lon="4.456291701169">
        <ele>0</ele>
        <time>2020-10-23T20:57:17Z</time>
      </trkpt>
      <trkpt lat="51.231124480926" lon="4.456236967362">
        <ele>0</ele>
        <time>2020-10-23T20:57:31Z</time>
      </trkpt>
      <trkpt lat="51.231151973558" lon="4.456358169636">
        <ele>0</ele>
        <time>2020-10-23T20:57:40Z</time>
      </trkpt>
      <trkpt lat="51.231230176685" lon="4.457078845398">
        <ele>0</ele>
        <time>2020-10-23T20:58:14Z</time>
      </trkpt>
      <trkpt lat="51.231204444252" lon="4.457288811993">
        <ele>0</ele>
        <time>2020-10-23T20:58:32Z</time>
      </trkpt>
      <trkpt lat="51.231198828379" lon="4.457466927368">
        <ele>0</ele>
        <time>2020-10-23T20:58:48Z</time>
      </trkpt>
      <trkpt lat="51.231189105375" lon="4.457707236441">
        <ele>0</ele>
        <time>2020-10-23T20:59:03Z</time>
      </trkpt>
      <trkpt lat="51.231191368488" lon="4.457930194981">
        <ele>0</ele>
        <time>2020-10-23T20:59:31Z</time>
      </trkpt>
      <trkpt lat="51.231206958822" lon="4.458070927082">
        <ele>0</ele>
        <time>2020-10-23T20:59:40Z</time>
      </trkpt>
      <trkpt lat="51.231217771473" lon="4.458126079984">
        <ele>0</ele>
        <time>2020-10-23T20:59:50Z</time>
      </trkpt>
      <trkpt lat="51.23126412338" lon="4.458448364039">
        <ele>0</ele>
        <time>2020-10-23T21:00:33Z</time>
      </trkpt>
      <trkpt lat="51.231267392321" lon="4.458493207204">
        <ele>0</ele>
        <time>2020-10-23T21:00:36Z</time>
      </trkpt>
      <trkpt lat="51.230986347214" lon="4.458752124095">
        <ele>0</ele>
        <time>2020-10-23T21:01:24Z</time>
      </trkpt>
      <trkpt lat="51.23079725155" lon="4.458835440181">
        <ele>0</ele>
        <time>2020-10-23T21:01:46Z</time>
      </trkpt>
      <trkpt lat="51.230681748968" lon="4.458827896471">
        <ele>2.4</ele>
        <time>2020-10-23T21:02:07Z</time>
      </trkpt>
      <trkpt lat="51.230568341861" lon="4.45886737522">
        <ele>0</ele>
        <time>2020-10-23T21:02:27Z</time>
      </trkpt>
      <trkpt lat="51.23043766804" lon="4.45892353395">
        <ele>0</ele>
        <time>2020-10-23T21:02:46Z</time>
      </trkpt>
      <trkpt lat="51.23000097105" lon="4.459076587444">
        <ele>0</ele>
        <time>2020-10-23T21:04:10Z</time>
      </trkpt>
      <trkpt lat="51.229891838712" lon="4.459123442265">
        <ele>0</ele>
        <time>2020-10-23T21:04:22Z</time>
      </trkpt>
      <trkpt lat="51.229848001375" lon="4.459111791424">
        <ele>0</ele>
        <time>2020-10-23T21:04:26Z</time>
      </trkpt>
      <trkpt lat="51.229812126843" lon="4.459116233831">
        <ele>0</ele>
        <time>2020-10-23T21:04:30Z</time>
      </trkpt>
      <trkpt lat="51.229739874865" lon="4.458973657712">
        <ele>0</ele>
        <time>2020-10-23T21:05:11Z</time>
      </trkpt>
      <trkpt lat="51.229754710828" lon="4.458907775978">
        <ele>0</ele>
        <time>2020-10-23T21:05:15Z</time>
      </trkpt>
      <trkpt lat="51.229813551766" lon="4.458870979437">
        <ele>0.6</ele>
        <time>2020-10-23T21:05:21Z</time>
      </trkpt>
      <trkpt lat="51.229862418243" lon="4.458852539257">
        <ele>1.6</ele>
        <time>2020-10-23T21:05:26Z</time>
      </trkpt>
      <trkpt lat="51.229885803744" lon="4.458853628904">
        <ele>1.2</ele>
        <time>2020-10-23T21:05:28Z</time>
      </trkpt>
      <trkpt lat="51.2299129611" lon="4.4587181774">
        <ele>2</ele>
        <time>2020-10-23T21:05:40Z</time>
      </trkpt>
      <trkpt lat="51.229844564796" lon="4.458028514668">
        <ele>0</ele>
        <time>2020-10-23T21:06:41Z</time>
      </trkpt>
      <trkpt lat="51.229773570103" lon="4.457961459468">
        <ele>0</ele>
        <time>2020-10-23T21:06:53Z</time>
      </trkpt>
      <trkpt lat="51.229672735846" lon="4.457866911636">
        <ele>4.6</ele>
        <time>2020-10-23T21:07:46Z</time>
      </trkpt>
    </trkseg>
  </trk>
</gpx>